地図

経路データ

SID SEASON NUMBER BASIN SUBBASIN NAME ISO_TIME NATURE LAT LON WMO_WIND WMO_PRES WMO_AGENCY TRACK_TYPE DIST2LAND LANDFALL IFLAG USA_AGENCY USA_ATCF_ID USA_LAT USA_LON USA_RECORD USA_STATUS USA_WIND USA_PRES USA_SSHS USA_R34_NE USA_R34_SE USA_R34_SW USA_R34_NW USA_R50_NE USA_R50_SE USA_R50_SW USA_R50_NW USA_R64_NE USA_R64_SE USA_R64_SW USA_R64_NW USA_POCI USA_ROCI USA_RMW USA_EYE TOKYO_LAT TOKYO_LON TOKYO_GRADE TOKYO_WIND TOKYO_PRES TOKYO_R50_DIR TOKYO_R50_LONG TOKYO_R50_SHORT TOKYO_R30_DIR TOKYO_R30_LONG TOKYO_R30_SHORT TOKYO_LAND CMA_LAT CMA_LON CMA_CAT CMA_WIND CMA_PRES HKO_LAT HKO_LON HKO_CAT HKO_WIND HKO_PRES NEWDELHI_LAT NEWDELHI_LON NEWDELHI_GRADE NEWDELHI_WIND NEWDELHI_PRES NEWDELHI_CI NEWDELHI_DP NEWDELHI_POCI REUNION_LAT REUNION_LON REUNION_TYPE REUNION_WIND REUNION_PRES REUNION_TNUM REUNION_CI REUNION_RMW REUNION_R34_NE REUNION_R34_SE REUNION_R34_SW REUNION_R34_NW REUNION_R50_NE REUNION_R50_SE REUNION_R50_SW REUNION_R50_NW REUNION_R64_NE REUNION_R64_SE REUNION_R64_SW REUNION_R64_NW BOM_LAT BOM_LON BOM_TYPE BOM_WIND BOM_PRES BOM_TNUM BOM_CI BOM_RMW BOM_R34_NE BOM_R34_SE BOM_R34_SW BOM_R34_NW BOM_R50_NE BOM_R50_SE BOM_R50_SW BOM_R50_NW BOM_R64_NE BOM_R64_SE BOM_R64_SW BOM_R64_NW BOM_ROCI BOM_POCI BOM_EYE BOM_POS_METHOD BOM_PRES_METHOD NADI_LAT NADI_LON NADI_CAT NADI_WIND NADI_PRES WELLINGTON_LAT WELLINGTON_LON WELLINGTON_WIND WELLINGTON_PRES DS824_LAT DS824_LON DS824_STAGE DS824_WIND DS824_PRES TD9636_LAT TD9636_LON TD9636_STAGE TD9636_WIND TD9636_PRES TD9635_LAT TD9635_LON TD9635_WIND TD9635_PRES TD9635_ROCI NEUMANN_LAT NEUMANN_LON NEUMANN_CLASS NEUMANN_WIND NEUMANN_PRES MLC_LAT MLC_LON MLC_CLASS MLC_WIND MLC_PRES USA_GUST BOM_GUST BOM_GUST_PER REUNION_GUST REUNION_GUST_PER USA_SEAHGT USA_SEARAD_NE USA_SEARAD_SE USA_SEARAD_SW USA_SEARAD_NW STORM_SPEED STORM_DIR
1981030S17190 1981 8 SP MM BETSY 1981-01-30 00:00:00 NR -17.0000 189.800 35 995 wellington main 417 417 ________O_____ -1 -17.0000 -170.200 35 995 6 0
1981030S17190 1981 8 SP MM BETSY 1981-01-30 03:00:00 NR -17.3094 189.777 main 446 446 ________P_____ -1 -17.3094 -170.223 36 993 6 184
1981030S17190 1981 8 SP MM BETSY 1981-01-30 06:00:00 NR -17.6150 189.753 main 476 471 ________P_____ -1 -17.6150 -170.247 37 992 6 184
1981030S17190 1981 8 SP MM BETSY 1981-01-30 09:00:00 NR -17.9132 189.727 main 501 501 ________P_____ -1 -17.9132 -170.273 38 991 6 186
1981030S17190 1981 8 SP MM BETSY 1981-01-30 12:00:00 NR -18.2000 189.700 40 990 wellington main 532 532 ________O_____ -1 -18.2000 -170.300 40 990 6 186
1981030S17190 1981 8 SP MM BETSY 1981-01-30 15:00:00 NR -18.4725 189.669 main 563 563 ________P_____ -1 -18.4725 -170.331 40 990 5 187
1981030S17190 1981 8 SP MM BETSY 1981-01-30 18:00:00 NR -18.7299 189.630 main 581 581 ________P_____ -1 -18.7299 -170.370 40 990 5 190
1981030S17190 1981 8 SP MM BETSY 1981-01-30 21:00:00 NR -18.9724 189.575 main 612 609 ________P_____ -1 -18.9724 -170.425 40 990 4 208
1981030S17190 1981 8 SP MM BETSY 1981-01-31 00:00:00 TS -19.1143 189.414 40 990 wellington main 617 617 O_______O_O_O_ jtwc_sh SH141981 -19.0000 -170.700 -1 -19.2000 -170.500 40 990 -19.0000 -170.700 2 -19.0000 -170.700 TC 35 4 227
1981030S17190 1981 8 SP MM BETSY 1981-01-31 03:00:00 TS -19.2360 189.281 main 625 625 P_______P_P_P_ SH141981 -19.0875 -170.788 -1 -19.4387 -170.595 40 990 -19.1251 -170.831 2 -19.0900 -170.788 TC 35 4 227
1981030S17190 1981 8 SP MM BETSY 1981-01-31 06:00:00 TS -19.3531 189.144 main 641 639 O_______P_P_O_ jtwc_sh SH141981 -19.2000 -170.900 -1 -19.6600 -170.712 40 990 -19.2501 -170.960 2 -19.2000 -170.900 TC 35 4 228
1981030S17190 1981 8 SP MM BETSY 1981-01-31 09:00:00 TS -19.4797 188.992 main 650 648 P_______P_P_P_ SH141981 -19.3500 -171.050 -1 -19.8512 -170.848 40 990 -19.3751 -171.084 2 -19.3425 -171.050 TC 35 4 225
1981030S17190 1981 8 SP MM BETSY 1981-01-31 12:00:00 TS -19.6250 188.850 40 990 wellington main 657 657 O_______O_O_O_ jtwc_sh SH141981 -19.5000 -171.200 -1 -20.0000 -171.000 40 990 -19.5000 -171.200 2 -19.5000 -171.200 TC 35 4 222
1981030S17190 1981 8 SP MM BETSY 1981-01-31 15:00:00 TS -19.7428 188.741 main 667 667 P_______P_P_P_ SH141981 -19.6000 -171.300 -1 -20.0888 -171.128 38 991 -19.6249 -171.309 2 -19.6575 -171.300 TC 35 3 223
1981030S17190 1981 8 SP MM BETSY 1981-01-31 18:00:00 TS -19.8467 188.626 main 676 676 O_______P_P_O_ jtwc_sh SH141981 -19.7000 -171.400 -1 -20.1370 -171.275 37 992 -19.7498 -171.420 2 -19.8000 -171.400 TC 35 3 230
1981030S17190 1981 8 SP MM BETSY 1981-01-31 21:00:00 TS -19.9479 188.481 main 686 686 P_______P_P_P_ SH141981 -19.8500 -171.535 -1 -20.1668 -171.460 36 993 -19.8748 -171.546 2 -19.9000 -171.535 TC 35 4 236
1981030S17190 1981 8 SP MM BETSY 1981-02-01 00:00:00 TS -20.0500 188.300 35 995 wellington main 695 705 O_______O_O_O_ jtwc_sh SH141981 -20.0000 -171.700 -1 -20.2000 -171.700 35 995 -20.0000 -171.700 2 -20.0000 -171.700 TC 35 4 240
1981030S17190 1981 8 SP MM BETSY 1981-02-01 03:00:00 TS -20.1648 188.081 main 716 716 P_______P_P_P_ SH141981 -20.1000 -171.885 -1 -20.2763 -172.025 33 995 -20.1330 -171.880 2 -20.1500 -171.885 TC 35 5 243
1981030S17190 1981 8 SP MM BETSY 1981-02-01 06:00:00 TS -20.2807 187.826 main 727 727 O_______P_P_O_ jtwc_sh SH141981 -20.2000 -172.100 -1 -20.3580 -172.405 32 996 -20.2648 -172.090 2 -20.3000 -172.100 TC 35 6 245
1981030S17190 1981 8 SP MM BETSY 1981-02-01 09:00:00 TS -20.3956 187.548 main 738 738 P_______P_P_P_ SH141981 -20.3500 -172.335 -1 -20.4356 -172.807 31 996 -20.3892 -172.330 2 -20.4075 -172.335 TC 35 6 248
1981030S17190 1981 8 SP MM BETSY 1981-02-01 12:00:00 TS -20.5000 187.250 30 997 wellington main 749 750 O_______O_O_O_ jtwc_sh SH141981 -20.5000 -172.600 -1 -20.5000 -173.200 30 997 -20.5000 -172.600 2 -20.5000 -172.600 TC 35 6 251
1981030S17190 1981 8 SP MM BETSY 1981-02-01 15:00:00 TS -20.5855 186.960 main 762 762 P_______P_P_P_ SH141981 -20.6149 -172.885 -1 -20.5264 -173.507 30 997 -20.5933 -172.884 2 -20.6074 -172.885 TC 32 6 255
1981030S17190 1981 8 SP MM BETSY 1981-02-01 18:00:00 TS -20.6534 186.649 main 776 776 O_______P_P_O_ jtwc_sh SH141981 -20.7000 -173.200 -1 -20.5413 -173.806 30 997 -20.6723 -173.198 2 -20.7000 -173.200 TC 30 6 259
1981030S17190 1981 8 SP MM BETSY 1981-02-01 21:00:00 TS -20.7039 186.317 main 780 776 P_______P_P_P_ SH141981 -20.7574 -173.535 -1 -20.5606 -174.126 30 997 -20.7401 -173.537 2 -20.7574 -173.535 TC 30 7 262
1981030S17190 1981 8 SP MM BETSY 1981-02-02 00:00:00 TS -20.7500 185.950 30 997 wellington main 776 748 O_______O_O_O_ jtwc_sh SH141981 -20.8000 -173.900 -1 -20.6000 -174.500 30 997 -20.8000 -173.900 1 -20.8000 -173.900 TC 30 7 262
1981030S17190 1981 8 SP MM BETSY 1981-02-02 03:00:00 TS -20.8069 185.545 main 739 713 P_______P_P_P_ SH141981 -20.8500 -174.293 -1 -20.6829 -174.975 30 997 -20.8446 -174.259 1 -20.8500 -174.293 TC 30 8 261
1981030S17190 1981 8 SP MM BETSY 1981-02-02 06:00:00 TS -20.8675 185.114 main 713 682 O_______P_P_O_ jtwc_sh SH141981 -20.9000 -174.700 -1 -20.7856 -175.505 30 997 -20.8843 -174.641 1 -20.9000 -174.700 TC 30 8 261
1981030S17190 1981 8 SP MM BETSY 1981-02-02 09:00:00 TS -20.9280 184.682 main 682 659 P_______P_P_P_ SH141981 -20.9423 -175.085 -1 -20.8954 -176.057 30 997 -20.9319 -175.052 1 -20.9422 -175.078 TC 30 8 261
1981030S17190 1981 8 SP MM BETSY 1981-02-02 12:00:00 TS -21.0000 184.225 30 997 wellington main 652 630 O_______O_O_O_ jtwc_sh SH141981 -21.0000 -175.500 -1 -21.0000 -176.600 30 997 -21.0000 -175.500 1 -21.0000 -175.500 TC 30 9 260
1981030S17190 1981 8 SP MM BETSY 1981-02-02 15:00:00 TS -21.0884 183.724 main 621 584 P_______P_P_P_ SH141981 -21.0849 -175.978 -1 -21.0859 -177.106 30 997 -21.0975 -175.987 1 -21.0851 -176.035 TC 30 10 259
1981030S17190 1981 8 SP MM BETSY 1981-02-02 18:00:00 TS -21.1936 183.139 main 576 542 O_______P_P_O_ jtwc_sh SH141981 -21.2000 -176.500 -1 -21.1647 -177.595 30 997 -21.2192 -176.506 1 -21.2000 -176.600 TC 30 11 259
1981030S17190 1981 8 SP MM BETSY 1981-02-02 21:00:00 TS -21.3028 182.533 main 535 498 P_______P_P_P_ SH141981 -21.3428 -177.045 -1 -21.2360 -178.062 30 997 -21.3562 -177.047 1 -21.3426 -177.117 TC 30 12 261
1981030S17190 1981 8 SP MM BETSY 1981-02-03 00:00:00 TS -21.3857 181.886 30 997 wellington main 498 452 O_______O_O_O_ jtwc_sh SH141981 -21.5000 -177.600 -1 -21.3000 -178.500 30 997 -21.5000 -177.600 1 -21.5000 -177.600 TC 30 13 267
1981030S17190 1981 8 SP MM BETSY 1981-02-03 03:00:00 NR -21.3644 181.116 main 446 429 ________P_____ SH141981 -1 -21.3644 -178.884 30 997 1 TC 11 268
1981030S17190 1981 8 SP MM BETSY 1981-02-03 06:00:00 NR -21.4212 180.757 main 429 419 ________P_____ -1 -21.4212 -179.243 30 997 1 7 261
1981030S17190 1981 8 SP MM BETSY 1981-02-03 09:00:00 NR -21.4675 180.395 main 419 403 ________P_____ -1 -21.4675 -179.605 30 997 1 7 264
1981030S17190 1981 8 SP MM BETSY 1981-02-03 12:00:00 NR -21.5000 180.000 30 997 wellington main 403 386 ________O_____ -1 -21.5000 180.000 30 997 8 266
1981030S17190 1981 8 SP MM BETSY 1981-02-03 15:00:00 NR -21.5165 179.552 main 386 370 ________P_____ -1 -21.5165 179.552 30 997 9 269
1981030S17190 1981 8 SP MM BETSY 1981-02-03 18:00:00 NR -21.5195 179.060 main 370 360 ________P_____ -1 -21.5195 179.060 30 997 9 270
1981030S17190 1981 8 SP MM BETSY 1981-02-03 21:00:00 NR -21.5127 178.537 main 359 357 ________P_____ -1 -21.5127 178.537 30 997 10 271
1981030S17190 1981 8 SP MM BETSY 1981-02-04 00:00:00 NR -21.5000 178.000 30 997 wellington main 357 ________O_____ -1 -21.5000 178.000 30 997 10 271

デジタル台風データ・検索

IBTrACS Databaseについて

本データベースは、米国NOAAが公開する1842年以降の世界の熱帯低気圧のベストトラックデータアーカイブInternational Best Track Archive for Climate Stewardship (IBTrACS)を、ウェブで閲覧しやすい形式に変換したものです。

最終更新日:2021-11-26